Tiempo atmosférico en la estación meteorológica de Villafranca De Los Barros, Badajoz (430 m.)



Fecha
DESCASC
Temp. máxima en grados centígrados (hora)
DESCASC
Temp. mínima en grados centígrados (hora)
DESCASC
Temp. media en grados centígrados
DESCASC
Racha de viento máxima en m/sg (hora)
DESCASC
Velocidad máxima media en intervalos de 10 minutos(hora)
DESCASC
Precipitaciones diarias en mm
DESCASC
Precipitaciones de 00:00 a 06:00 en mm
DESCASC
Precipitaciones de 06:00 a 12:00 en mm
DESCASC
Precipitaciones de 12:00 a 18:00 en mm
DESCASC
Precipitaciones de 18:00 a 24:00 en mm
DESCASC
18-04-2019 17.4 (17:00) 7 (08:00) 12.2 12.5 (18:50) 9.44 (18:50) 15.2 0 0 0 15.2
17-04-2019 21 (15:30) 9.5 (08:10) 15.3 14.44 (17:40) 10 (15:50) 0.4 0 0 0 0.4
16-04-2019 24.7 (17:40) 5.7 (00:00) 15.2 11.67 (18:20) 6.67 (20:00) 0 0 0 0 0
15-04-2019 21.1 (14:30) 12.3 (00:00) 16.7 11.67 (17:10) 8.06 (17:10) 0 0 0 0 0
14-04-2019 23.7 (16:40) 13 (00:00) 18.4 5.83 (00:10) 4.17 (00:10) 0 0 0 0 0
13-04-2019 23.1 (17:00) 6.8 (00:00) 15 8.89 (19:40) 6.67 (19:30) 0 0 0 0 0
12-04-2019 20.4 (18:00) 3.9 (00:00) 12.1 7.22 (18:40) 4.72 (18:40) 0 0 0 0 0
11-04-2019 19.2 (18:10) 5.7 (00:00) 12.5 9.44 (19:30) 6.11 (00:40) 0 0 0 0 0
10-04-2019 16.4 (18:30) 7.3 (00:00) 11.8 11.94 (17:40) 8.61 (19:40) 0 0 0 0 0
09-04-2019 15 (15:50) 7.1 (00:00) 11 14.44 (16:40) 9.44 (13:50) 0.4 0 0 0.4 0
08-04-2019 16.4 (17:30) 8.8 (00:00) 12.6 14.17 (20:00) 8.61 (20:10) 4.6 2.6 2 0 0
07-04-2019 13.8 (19:00) 7.6 (00:00) 10.7 9.17 (02:10) 5.83 (01:10) 1.2 0 0 0.2 1
06-04-2019 13.5 (15:00) 5.8 (00:00) 9.7 20.83 (15:40) 12.22 (15:40) 3.4 0 0.4 1.6 1.4
05-04-2019 12.3 (17:20) 4.7 (00:00) 8.5 15.83 (10:10) 8.61 (15:50) 5.4 1.4 1.6 0.2 2.2
04-04-2019 15.6 (18:10) 3.2 (00:00) 9.4 11.11 (17:40) 6.67 (23:20) 0 0 0 0 0
03-04-2019 16.5 (18:00) 4.7 (00:00) 10.6 10.83 (15:00) 7.5 (15:00) 0 0 0 0 0
02-04-2019 19.3 (18:40) 6.4 (00:00) 12.8 6.11 (20:10) 4.17 (20:10) 0 0 0 0 0
01-04-2019 18.5 (16:20) 10 (00:00) 14.3 9.17 (17:00) 5.83 (17:00) 2.6 0.2 0 0.8 1.6
31-03-2019 19.7 (16:50) 7.8 (00:00) 13.8 13.61 (17:50) 9.17 (17:50) 12.2 0 0 0.2 12
30-03-2019 21.9 (14:50) 10.5 (00:00) 16.2 13.89 (20:00) 8.61 (20:00) 13.6 0 0 0 13.6
29-03-2019 21.2 (16:30) 5.4 (00:00) 13.3 10.56 (16:30) 5.83 (11:30) 0 0 0 0 0
28-03-2019 20.9 (16:20) 2.2 (00:00) 11.5 13.61 (15:10) 7.22 (16:00) 0 0 0 0 0
27-03-2019 21.3 (16:30) 5.7 (00:00) 13.5 13.06 (15:30) 8.33 (15:20) 0 0 0 0 0
26-03-2019 24.9 (17:20) 3.1 (00:00) 14 11.39 (14:40) 6.67 (23:59) 0 0 0 0 0
25-03-2019 23.3 (16:00) 3.7 (00:00) 13.5 12.22 (14:50) 7.78 (15:10) 0 0 0 0 0
24-03-2019 22.1 (16:20) 2.1 (00:00) 12.1 11.39 (13:50) 6.39 (14:20) 0 0 0 0 0
23-03-2019 21.8 (16:40) 5 (00:00) 13.4 15 (12:40) 11.11 (12:10) 0 0 0 0 0
22-03-2019 19.2 (17:10) 2.8 (00:00) 11 13.61 (13:50) 7.5 (13:50) 0 0 0 0 0
21-03-2019 18 (15:50) 1.5 (00:00) 9.8 11.11 (13:40) 6.39 (12:30) 0 0 0 0 0

Gráficas

Temp. máximas Temp. mínimas Temp. medias Precipitaciones Rachas de viento máximas Velocidades máximas media en intervalos de 10 minutos

Datos horarios

Fecha y hora oficial Temperatura (ºC) Velocidad del viento (km/h) Dirección del viento Racha (km/h) Dirección de racha Precipitación (mm) Presión (hPa) Tendencia (hPa) Humedad (%)
2019-04-19 23:00:00 11.3 4 Este 7 Este 0 -- -- 93
2019-04-19 22:00:00 11.3 2 Nordeste 5 Este 0 -- -- 92
2019-04-19 21:00:00 11.2 0 Calma 22 Sur 2.4 -- -- 90
2019-04-19 20:00:00 12.1 14 Sur 29 Sudeste 0 -- -- 85
2019-04-19 19:00:00 13.4 6 Sudoeste 21 Sur 0.8 -- -- 80
2019-04-19 18:00:00 13.2 8 Nordeste 31 Nordeste 0.8 -- -- 74
2019-04-19 17:00:00 16.4 18 Oeste 25 Oeste 0 -- -- 72
2019-04-19 16:00:00 16 6 Norte 25 Noroeste 0 -- -- 62
2019-04-19 15:00:00 15.4 3 Nordeste 19 Nordeste 0 -- -- 65
2019-04-19 14:00:00 15.8 8 Nordeste 18 Este 0 -- -- 65
2019-04-19 13:00:00 15.7 5 Este 12 Este 0 -- -- 67
2019-04-19 12:00:00 13.8 6 Nordeste 9 Este 0 -- -- 73
2019-04-19 11:00:00 12.3 5 Este 9 Sudeste 0 -- -- 83
2019-04-19 10:00:00 11.4 5 Sur 10 Sur 0 -- -- 90
2019-04-19 09:00:00 10.2 6 Sur 9 Sur 0 -- -- 94
2019-04-19 08:00:00 10 6 Sur 9 Sur 0 -- -- 95
2019-04-19 07:00:00 10 5 Sudoeste 10 Sur 0 -- -- 95
2019-04-19 06:00:00 10 5 Sur 7 Sur 0 -- -- 95
2019-04-19 05:00:00 10.1 6 Sur 8 Sur 0 -- -- 93
2019-04-19 04:00:00 10 5 Sudoeste 10 Sudoeste 0 -- -- 93
2019-04-19 03:00:00 10 7 Oeste 12 Oeste 0 -- -- 92
2019-04-19 02:00:00 10.1 5 Oeste 16 Sudoeste 0.2 -- -- 93
2019-04-19 01:00:00 10 9 Sudoeste 12 Sudoeste 0.4 -- -- 93
2019-04-19 00:00:00 9.8 9 Oeste 14 Oeste 0.2 -- -- 91
2019-04-18 23:00:00 9.6 11 Oeste 40 Oeste 3.2 -- -- 91
2019-04-18 22:00:00 10.5 19 Oeste 28 Sudoeste 0 -- -- 88
2019-04-18 21:00:00 10.7 16 Sudoeste 28 Sur 0 -- -- 83
2019-04-18 20:00:00 10.3 18 Sur 38 Sudoeste 11.8 -- -- 89
2019-04-18 19:00:00 12.3 27 Sudoeste 45 Sur 0 -- -- 69
2019-04-18 18:00:00 16.2 5 Norte 20 Nordeste 0 -- -- 56
2019-04-18 17:00:00 17.4 10 Norte 22 Noroeste 0 -- -- 53
2019-04-18 16:00:00 15.2 7 Norte 16 Oeste 0 -- -- 62
2019-04-18 15:00:00 15 11 Oeste 28 Sudoeste 0 -- -- 58
2019-04-18 14:00:00 15.1 11 Oeste 26 Noroeste 0 -- -- 68
2019-04-18 13:00:00 15.1 11 Oeste 21 Oeste 0 -- -- 64
2019-04-18 12:00:00 14.5 11 Sudoeste 17 Oeste 0 -- -- 68
2019-04-18 11:00:00 14.1 4 Sudoeste 11 Sudeste 0 -- -- 73
2019-04-18 10:00:00 11.9 6 Sur 9 Sudoeste 0 -- -- 86
2019-04-18 09:00:00 9.8 7 Sur 13 Sur 0 -- -- 94
2019-04-18 08:00:00 7 5 Sudeste 8 Sudeste 0 -- -- 95
2019-04-18 07:00:00 8.1 8 Sudeste 12 Sudeste 0 -- -- 93
2019-04-18 06:00:00 9 8 Sudeste 12 Sudeste 0 -- -- 93
2019-04-18 05:00:00 8.5 5 Sur 11 Este 0 -- -- 90
2019-04-18 04:00:00 9.8 7 Sur 18 Sudoeste 0 -- -- 88
2019-04-18 03:00:00 10.4 9 Sur 27 Sur 0 -- -- 86
2019-04-18 02:00:00 10.9 21 Sur 32 Sur 0 -- -- 85
2019-04-18 01:00:00 10.7 14 Sur 25 Sur 0 -- -- 87
2019-04-18 00:00:00 11.2 14 Sudoeste 24 Sur 0 -- -- 82
2019-04-17 23:00:00 11.6 17 Sudoeste 29 Sur 0 -- -- 79
2019-04-17 22:00:00 11.9 18 Sur 31 Sur 0 -- -- 84
2019-04-17 21:00:00 12.1 23 Sur 32 Sur 0.4 -- -- 83
2019-04-17 20:00:00 12.7 20 Sur 32 Sudoeste 0 -- -- 78
2019-04-17 19:00:00 13.9 22 Sudoeste 34 Sudoeste 0 -- -- 67
2019-04-17 18:00:00 13.7 27 Sudoeste 52 Sudoeste 0 -- -- 76
2019-04-17 17:00:00 19.8 32 Sur 51 Sudoeste 0 -- -- 48
2019-04-17 16:00:00 20.4 33 Sudoeste 47 Sur 0 -- -- 48
2019-04-17 15:00:00 20.6 30 Sudoeste 48 Sur 0 -- -- 48
2019-04-17 14:00:00 19.3 27 Sudoeste 41 Sur 0 -- -- 51
2019-04-17 13:00:00 18.4 22 Sur 33 Sudoeste 0 -- -- 53
2019-04-17 12:00:00 17.3 12 Sur 24 Sur 0 -- -- 51
2019-04-17 11:00:00 15.1 14 Sudeste 19 Sudeste 0 -- -- 56
2019-04-17 10:00:00 13.8 12 Sudeste 16 Sudeste 0 -- -- 62
2019-04-17 09:00:00 11.7 11 Sudeste 15 Sudeste 0 -- -- 68
2019-04-17 08:00:00 9.6 4 Sudeste 9 Sudeste 0 -- -- 74
2019-04-17 07:00:00 10.6 7 Sudeste 15 Sur 0 -- -- 70
2019-04-17 06:00:00 11.8 14 Sur 21 Sur 0 -- -- 66
2019-04-17 05:00:00 11.9 12 Sudeste 18 Sur 0 -- -- 64
2019-04-17 04:00:00 12.3 11 Sur 21 Sur 0 -- -- 62
2019-04-17 03:00:00 13.8 15 Sur 26 Sur 0 -- -- 58
2019-04-17 02:00:00 15 17 Sur 22 Sur 0 -- -- 54
2019-04-17 01:00:00 15.7 17 Sur 22 Sur 0 -- -- 50
2019-04-17 00:00:00 15.9 9 Sur 17 Sur 0 -- -- 49
2019-04-16 23:00:00 16.7 12 Sur 14 Sur 0 -- -- 45
2019-04-16 22:00:00 18.2 8 Sudeste 23 Sur 0 -- -- 40
2019-04-16 21:00:00 20.2 17 Sur 30 Sur 0 -- -- 36
2019-04-16 20:00:00 22.3 24 Sur 33 Sur 0 -- -- 27
2019-04-16 19:00:00 24 19 Sur 42 Sur 0 -- -- 26
2019-04-16 18:00:00 24.6 22 Sudeste 35 Sur 0 -- -- 27
2019-04-16 17:00:00 24.3 14 Sur 33 Sur 0 -- -- 27
2019-04-16 16:00:00 23.2 16 Sur 30 Sudeste 0 -- -- 29
2019-04-16 15:00:00 22.5 17 Sur 33 Sudeste 0 -- -- 28
2019-04-16 14:00:00 21.2 15 Sudeste 28 Sudeste 0 -- -- 31
2019-04-16 13:00:00 20 14 Sudeste 24 Sudeste 0 -- -- 39
2019-04-16 12:00:00 17.9 10 Sur 28 Sudeste 0 -- -- 55
2019-04-16 11:00:00 15.9 18 Sudeste 27 Sudeste 0 -- -- 61
2019-04-16 10:00:00 13 8 Sudeste 11 Sur 0 -- -- 78
2019-04-16 09:00:00 8.9 6 Sur 13 Sur 0 -- -- 93
2019-04-16 08:00:00 6.2 5 Sudeste 7 Sudeste 0 -- -- 97
2019-04-16 07:00:00 6.3 5 Sur 7 Sudoeste 0 -- -- 95
2019-04-16 06:00:00 6.2 5 Sur 9 Sur 0 -- -- 92
2019-04-16 05:00:00 6.8 4 Sudeste 6 Sudeste 0 -- -- 94
2019-04-16 04:00:00 8.3 0 Calma 6 Sur 0 -- -- 88
2019-04-16 03:00:00 10.7 6 Oeste 17 Oeste 0 -- -- 83
2019-04-16 02:00:00 11 9 Oeste 17 Oeste 0 -- -- 81
2019-04-16 01:00:00 11.5 10 Oeste 15 Oeste 0 -- -- 79
2019-04-16 00:00:00 12.3 10 Oeste 13 Oeste 0 -- -- 72
2019-04-15 23:00:00 13.6 8 Oeste 18 Oeste 0 -- -- 65
2019-04-15 22:00:00 15.2 13 Oeste 26 Oeste 0 -- -- 58
2019-04-15 21:00:00 16.9 15 Oeste 32 Oeste 0 -- -- 54
2019-04-15 20:00:00 18.1 19 Oeste 34 Oeste 0 -- -- 52
2019-04-15 19:00:00 18.2 22 Oeste 38 Oeste 0 -- -- 56
2019-04-15 18:00:00 18.7 24 Oeste 42 Oeste 0 -- -- 60
2019-04-15 17:00:00 18.7 22 Oeste 33 Noroeste 0 -- -- 58
2019-04-15 16:00:00 19.8 18 Oeste 35 Sudoeste 0 -- -- 50
2019-04-15 15:00:00 20.5 22 Oeste 33 Oeste 0 -- -- 42
2019-04-15 14:00:00 20.7 17 Oeste 36 Oeste 0 -- -- 50
2019-04-15 13:00:00 20.1 14 Oeste 39 Oeste 0 -- -- 55
2019-04-15 12:00:00 19 16 Noroeste 24 Oeste 0 -- -- 62
2019-04-15 11:00:00 17.4 12 Oeste 23 Oeste 0 -- -- 71
2019-04-15 10:00:00 17.5 17 Oeste 24 Oeste 0 -- -- 69
2019-04-15 09:00:00 14 8 Sudoeste 12 Sudoeste 0 -- -- 82
2019-04-15 08:00:00 12.4 5 Sudeste 10 Sur 0 -- -- 83
2019-04-15 07:00:00 12.9 9 Sur 12 Sur 0 -- -- 84
2019-04-15 06:00:00 12.7 5 Sur 9 Sur 0 -- -- 82
2019-04-15 05:00:00 13.8 9 Sudeste 12 Sudeste 0 -- -- 81
2019-04-15 04:00:00 14.1 4 Sur 9 Sur 0 -- -- 79
2019-04-15 03:00:00 15.2 3 Sur 7 Sudoeste 0 -- -- 76
2019-04-15 02:00:00 17.5 8 Sudoeste 17 Sudoeste 0 -- -- 71
2019-04-15 01:00:00 17.6 10 Sudoeste 14 Sudoeste 0 -- -- 70
2019-04-15 00:00:00 17.3 5 Sur 6 Sur 0 -- -- 68
2019-04-14 23:00:00 18 5 Sur 8 Sur 0 -- -- 64
2019-04-14 22:00:00 19.4 0 Calma 5 Este 0 -- -- 60
2019-04-14 21:00:00 21.5 3 Nordeste 10 Este 0 -- -- 55
2019-04-14 20:00:00 22.5 6 Nordeste 18 Nordeste 0 -- -- 53
2019-04-14 19:00:00 23 9 Norte 21 Norte 0 -- -- 51
2019-04-14 18:00:00 22.9 6 Nordeste 19 Nordeste 0 -- -- 51
2019-04-14 17:00:00 23.2 9 Noroeste 17 Noroeste 0 -- -- 49
2019-04-14 16:00:00 22.8 5 Nordeste 15 Nordeste 0 -- -- 52
2019-04-14 15:00:00 21.5 5 Norte 15 Noroeste 0 -- -- 57
2019-04-14 14:00:00 20.6 6 Sur 11 Norte 0 -- -- 61
2019-04-14 13:00:00 18.8 3 Sudoeste 11 Sudeste 0 -- -- 68
2019-04-14 12:00:00 16.5 4 Norte 12 Sudoeste 0 -- -- 77
2019-04-14 11:00:00 14.9 5 Sur 11 Sur 0 -- -- 83
2019-04-14 10:00:00 13.5 4 Oeste 13 Oeste 0 -- -- 89
2019-04-14 09:00:00 13.1 5 Oeste 12 Oeste 0 -- -- 90
2019-04-14 08:00:00 13 5 Oeste 13 Oeste 0 -- -- 90
2019-04-14 07:00:00 13.3 8 Oeste 18 Noroeste 0 -- -- 89
2019-04-14 06:00:00 13.6 11 Noroeste 18 Noroeste 0 -- -- 87
2019-04-14 05:00:00 13.8 12 Oeste 17 Oeste 0 -- -- 89
2019-04-14 04:00:00 13.8 12 Noroeste 21 Oeste 0 -- -- 90
2019-04-14 03:00:00 13.4 9 Oeste 14 Oeste 0 -- -- 86
2019-04-14 02:00:00 14.2 10 Noroeste 17 Noroeste 0 -- -- 82
2019-04-14 01:00:00 14.5 9 Oeste 21 Oeste 0 -- -- 79
2019-04-14 00:00:00 15.7 15 Noroeste 23 Oeste 0 -- -- 73
2019-04-13 23:00:00 15.5 8 Noroeste 13 Noroeste 0 -- -- 54
2019-04-13 22:00:00 17.3 11 Oeste 23 Oeste 0 -- -- 45
2019-04-13 21:00:00 18.8 12 Oeste 26 Oeste 0 -- -- 39
2019-04-13 20:00:00 19.6 22 Noroeste 32 Oeste 0 -- -- 38
2019-04-13 19:00:00 21.9 16 Noroeste 28 Oeste 0 -- -- 34
2019-04-13 18:00:00 22.4 16 Noroeste 31 Oeste 0 -- -- 35
2019-04-13 17:00:00 23.1 10 Oeste 28 Oeste 0 -- -- 34
2019-04-13 16:00:00 22.5 12 Oeste 27 Oeste 0 -- -- 33
2019-04-13 15:00:00 21.5 7 Oeste 23 Noroeste 0 -- -- 33
2019-04-13 14:00:00 20.2 8 Noroeste 18 Noroeste 0 -- -- 35
2019-04-13 13:00:00 19.5 7 Noroeste 24 Oeste 0 -- -- 39
2019-04-13 12:00:00 18.2 6 Oeste 14 Oeste 0 -- -- 47
2019-04-13 11:00:00 16.4 3 Sudoeste 8 Sudoeste 0 -- -- 56
2019-04-13 10:00:00 13.6 3 Sudoeste 5 Sudoeste 0 -- -- 67
2019-04-13 09:00:00 9.1 3 Sur 7 Sur 0 -- -- 85
2019-04-13 08:00:00 6.8 3 Sur 4 Sur 0 -- -- 85
2019-04-13 07:00:00 7.5 3 Sur -- -- 0 -- -- 81
2019-04-13 06:00:00 8.6 3 Sudoeste 5 Sudoeste 0 -- -- 78
2019-04-13 05:00:00 9.9 3 Sudoeste 10 Oeste 0 -- -- 73
2019-04-13 04:00:00 10.5 9 Oeste 14 Oeste 0 -- -- 69
2019-04-13 03:00:00 11.1 12 Oeste 17 Noroeste 0 -- -- 59
2019-04-13 02:00:00 10.6 3 Sudeste 6 Sur 0 -- -- 59
2019-04-13 01:00:00 10.6 4 Sur 5 Sur 0 -- -- 59
2019-04-13 00:00:00 10.2 4 Sur 5 Sur 0 -- -- 60
2019-04-12 23:00:00 11.4 3 Sudeste 6 Sur 0 -- -- 53
2019-04-12 22:00:00 14 0 Calma 8 Norte 0 -- -- 43
2019-04-12 21:00:00 17.2 7 Norte 22 Noroeste 0 -- -- 34
2019-04-12 20:00:00 18.9 13 Norte 22 Norte 0 -- -- 31
2019-04-12 19:00:00 19.9 9 Noroeste 26 Norte 0 -- -- 27
2019-04-12 18:00:00 20.4 10 Norte 22 Noroeste 0 -- -- 28
2019-04-12 17:00:00 19.8 8 Norte 23 Oeste 0 -- -- 32
2019-04-12 16:00:00 19.4 11 Noroeste 20 Noroeste 0 -- -- 33
2019-04-12 15:00:00 18.9 6 Sur 23 Noroeste 0 -- -- 33
2019-04-12 14:00:00 17.8 6 Sur 20 Oeste 0 -- -- 37
2019-04-12 13:00:00 16.5 3 Nordeste 12 Noroeste 0 -- -- 41
2019-04-12 12:00:00 14.6 4 Norte 9 Noroeste 0 -- -- 56
2019-04-12 11:00:00 12.9 4 Norte 9 Noroeste 0 -- -- 64
2019-04-12 10:00:00 10.7 2 Noroeste 5 Oeste 0 -- -- 71
2019-04-12 09:00:00 6.3 2 Sudeste 4 Sur 0 -- -- 91
2019-04-12 08:00:00 4.1 0 Calma 6 Sudeste 0 -- -- 90
2019-04-12 07:00:00 5.5 3 Sur 6 Sudoeste 0 -- -- 90
2019-04-12 06:00:00 6.3 2 Sur 5 Oeste 0 -- -- 89
2019-04-12 05:00:00 7 3 Oeste 5 Oeste 0 -- -- 84
2019-04-12 04:00:00 8.2 3 Oeste 10 Oeste 0 -- -- 82
2019-04-12 03:00:00 8.6 6 Oeste 12 Oeste 0 -- -- 83
2019-04-12 02:00:00 9.6 4 Oeste 16 Oeste 0 -- -- 78
2019-04-12 01:00:00 10.6 12 Oeste 19 Oeste 0 -- -- 72
2019-04-12 00:00:00 11.1 11 Oeste 17 Oeste 0 -- -- 61
2019-04-11 23:00:00 11.7 3 Noroeste 6 Noroeste 0 -- -- 53
2019-04-11 22:00:00 13.3 5 Norte 10 Norte 0 -- -- 47
2019-04-11 21:00:00 15.8 9 Norte 18 Norte 0 -- -- 40
2019-04-11 20:00:00 17.1 14 Norte 34 Norte 0 -- -- 37
2019-04-11 19:00:00 17.5 15 Noroeste 26 Noroeste 0 -- -- 36
2019-04-11 18:00:00 18.7 12 Norte 28 Noroeste 0 -- -- 37
2019-04-11 17:00:00 18.2 12 Noroeste 26 Noroeste 0 -- -- 38
2019-04-11 16:00:00 17.8 9 Noroeste 28 Noroeste 0 -- -- 40
2019-04-11 15:00:00 16.9 9 Norte 21 Noroeste 0 -- -- 44
2019-04-11 14:00:00 15.8 8 Noroeste 18 Noroeste 0 -- -- 50
2019-04-11 13:00:00 14.4 8 Noroeste 16 Noroeste 0 -- -- 60
2019-04-11 12:00:00 12.8 9 Noroeste 16 Noroeste 0 -- -- 70
2019-04-11 11:00:00 10.7 8 Noroeste 17 Noroeste 0 -- -- 76
2019-04-11 10:00:00 9.4 12 Noroeste 17 Noroeste 0 -- -- 82
2019-04-11 09:00:00 7.7 8 Noroeste 14 Noroeste 0 -- -- 89
2019-04-11 08:00:00 5.7 9 Oeste 13 Oeste 0 -- -- 91
2019-04-11 07:00:00 6.2 8 Oeste 15 Oeste 0 -- -- 90
2019-04-11 06:00:00 6.3 11 Oeste 18 Oeste 0 -- -- 91
2019-04-11 05:00:00 6.8 12 Oeste 23 Oeste 0 -- -- 90
2019-04-11 04:00:00 7 14 Oeste 21 Oeste 0 -- -- 90
2019-04-11 03:00:00 7.7 13 Oeste 21 Oeste 0 -- -- 88
2019-04-11 02:00:00 8.3 13 Oeste 23 Noroeste 0 -- -- 84
2019-04-11 01:00:00 9.5 18 Oeste 31 Noroeste 0 -- -- 79
2019-04-11 00:00:00 10.4 19 Noroeste 34 Oeste 0 -- -- 74
2019-04-10 23:00:00 11.4 19 Noroeste 33 Noroeste 0 -- -- 69
2019-04-10 22:00:00 12.6 23 Noroeste 35 Noroeste 0 -- -- 63
2019-04-10 21:00:00 13.5 23 Noroeste 40 Noroeste 0 -- -- 59
2019-04-10 20:00:00 15.3 24 Noroeste 42 Noroeste 0 -- -- 51
2019-04-10 19:00:00 15.9 26 Noroeste 42 Noroeste 0 -- -- 48
2019-04-10 18:00:00 16.3 27 Noroeste 43 Noroeste 0 -- -- 47
2019-04-10 17:00:00 15.5 24 Noroeste 40 Noroeste 0 -- -- 49
2019-04-10 16:00:00 15.6 25 Noroeste 40 Noroeste 0 -- -- 54
2019-04-10 15:00:00 14.9 23 Noroeste 40 Norte 0 -- -- 53
2019-04-10 14:00:00 14.7 23 Noroeste 35 Noroeste 0 -- -- 56
2019-04-10 13:00:00 13.7 25 Noroeste 37 Noroeste 0 -- -- 58
2019-04-10 12:00:00 12 26 Noroeste 36 Noroeste 0 -- -- 68
2019-04-10 11:00:00 10.5 20 Noroeste 37 Noroeste 0 -- -- 80
2019-04-10 10:00:00 8.3 22 Noroeste 40 Oeste 0 -- -- 92
2019-04-10 09:00:00 7.7 26 Noroeste 37 Noroeste 0 -- -- 93
2019-04-10 08:00:00 7.6 23 Oeste 34 Oeste 0 -- -- 93
2019-04-10 07:00:00 7.4 20 Oeste 30 Oeste 0 -- -- 94
2019-04-10 06:00:00 7.4 16 Oeste 30 Oeste 0 -- -- 93
2019-04-10 05:00:00 8.1 20 Oeste 33 Oeste 0 -- -- 91
2019-04-10 04:00:00 8.7 23 Oeste 35 Oeste 0 -- -- 88
2019-04-10 03:00:00 8.7 19 Oeste 28 Oeste 0 -- -- 87
2019-04-10 02:00:00 8.7 16 Oeste 28 Noroeste 0 -- -- 85
2019-04-10 01:00:00 9.1 20 Noroeste 32 Oeste 0 -- -- 83
2019-04-10 00:00:00 9.9 20 Noroeste 31 Oeste 0 -- -- 80
2019-04-09 23:00:00 10.2 19 Oeste 34 Noroeste 0 -- -- 75
2019-04-09 22:00:00 11.3 23 Noroeste 41 Oeste 0 -- -- 72
2019-04-09 21:00:00 12.9 26 Noroeste 40 Oeste 0 -- -- 64
2019-04-09 20:00:00 14 21 Noroeste 41 Noroeste 0 -- -- 61
2019-04-09 19:00:00 14.6 15 Oeste 32 Noroeste 0 -- -- 63
2019-04-09 18:00:00 14.3 22 Noroeste 43 Oeste 0 -- -- 67
2019-04-09 17:00:00 14.5 22 Oeste 52 Oeste 0.2 -- -- 66
2019-04-09 16:00:00 14.6 19 Oeste 36 Noroeste 0 -- -- 64
2019-04-09 15:00:00 14.1 28 Oeste 43 Oeste 0 -- -- 61
2019-04-09 14:00:00 13.9 34 Oeste 49 Oeste 0 -- -- 59
2019-04-09 13:00:00 12.1 29 Oeste 47 Oeste 0.2 -- -- 74
2019-04-09 12:00:00 12.6 27 Oeste 45 Oeste 0 -- -- 68
2019-04-09 11:00:00 11.3 26 Oeste 37 Oeste 0 -- -- 78
2019-04-09 10:00:00 10 12 Oeste 23 Sudoeste 0 -- -- 84
2019-04-09 09:00:00 8 6 Sudoeste 8 Sudoeste 0 -- -- 93
2019-04-09 08:00:00 7.6 4 Sudoeste 12 Sudoeste 0 -- -- 92
2019-04-09 07:00:00 7.3 7 Sudoeste 10 Sudoeste 0 -- -- 94
2019-04-09 06:00:00 7.5 8 Sudoeste 13 Sudoeste 0 -- -- 92
2019-04-09 05:00:00 8 10 Sudoeste 18 Sudoeste 0 -- -- 90
2019-04-09 04:00:00 7.6 7 Sur 15 Sudoeste 0 -- -- 89
2019-04-09 03:00:00 8 7 Sudoeste 17 Sudoeste 0 -- -- 87
2019-04-09 02:00:00 8.2 10 Oeste 18 Oeste 0 -- -- 85
2019-04-09 01:00:00 8.4 10 Oeste 20 Oeste 0 -- -- 82
2019-04-09 00:00:00 9.1 10 Oeste 14 Oeste 0 -- -- 83
2019-04-08 23:00:00 8.9 7 Sudoeste 13 Sudoeste 0 -- -- 89
2019-04-08 22:00:00 9.4 5 Noroeste 25 Noroeste 0 -- -- 86
2019-04-08 21:00:00 10.3 21 Noroeste 48 Noroeste 0 -- -- 80
2019-04-08 20:00:00 13 28 Noroeste 51 Noroeste 0 -- -- 71
2019-04-08 19:00:00 16.1 24 Oeste 39 Oeste 0 -- -- 46
2019-04-08 18:00:00 16 26 Oeste 40 Oeste 0 -- -- 47
2019-04-08 17:00:00 15.7 23 Noroeste 37 Oeste 0 -- -- 56
2019-04-08 16:00:00 15.7 23 Oeste 36 Oeste 0 -- -- 59
2019-04-08 15:00:00 15.5 23 Oeste 37 Oeste 0 -- -- 61
2019-04-08 14:00:00 14.8 17 Oeste 28 Oeste 0 -- -- 72
2019-04-08 13:00:00 14.1 14 Oeste 24 Oeste 0 -- -- 77
2019-04-08 12:00:00 13.8 13 Oeste 21 Oeste 0 -- -- 78
2019-04-08 11:00:00 12.5 10 Oeste 21 Oeste 0 -- -- 83
2019-04-08 10:00:00 11.4 9 Oeste 15 Oeste 0.2 -- -- 92
2019-04-08 09:00:00 11 8 Sudoeste 14 Sudoeste 1 -- -- 95
2019-04-08 08:00:00 10.9 9 Sudoeste 24 Sudoeste 0.4 -- -- 95
2019-04-08 07:00:00 10.9 19 Sudoeste 27 Sudoeste 0.4 -- -- 93
2019-04-08 06:00:00 10.7 12 Sudoeste 20 Sudoeste 1.2 -- -- 91
2019-04-08 05:00:00 10.8 14 Sudoeste 23 Sudoeste 0.6 -- -- 91
2019-04-08 04:00:00 11.1 15 Sudoeste 23 Sudoeste 0 -- -- 89
2019-04-08 03:00:00 11.3 13 Sudoeste 24 Sudoeste 0 -- -- 88
2019-04-08 02:00:00 11.5 17 Sudoeste 29 Sudoeste 0 -- -- 89
2019-04-08 01:00:00 11.7 18 Sudoeste 26 Sudoeste 0.8 -- -- 92
2019-04-08 00:00:00 11.7 8 Sur 12 Sudoeste 0 -- -- 92
2019-04-07 23:00:00 11.7 9 Sudoeste 13 Sudoeste 0 -- -- 91
2019-04-07 22:00:00 12.1 8 Sudoeste 20 Oeste 0 -- -- 89
2019-04-07 21:00:00 12.6 13 Oeste 28 Oeste 0.4 -- -- 90
2019-04-07 20:00:00 13.1 12 Sudoeste 23 Sudoeste 0.6 -- -- 91
2019-04-07 19:00:00 13.8 14 Sudoeste 23 Sudoeste 0 -- -- 85
2019-04-07 18:00:00 13.6 17 Sudoeste 24 Sudoeste 0 -- -- 84
2019-04-07 17:00:00 12.3 13 Sudoeste 23 Sudoeste 0 -- -- 89
2019-04-07 16:00:00 11.8 15 Sudoeste 26 Sudoeste 0 -- -- 86
2019-04-07 15:00:00 11.5 17 Sudoeste 29 Sudoeste 0 -- -- 85
2019-04-07 14:00:00 11 17 Sudoeste 27 Sudoeste 0 -- -- 85
2019-04-07 13:00:00 11.5 15 Sudoeste 23 Sudoeste 0.2 -- -- 77
2019-04-07 12:00:00 10.9 11 Sudoeste 22 Oeste 0 -- -- 79
2019-04-07 11:00:00 10.2 13 Oeste 22 Sudoeste 0 -- -- 83
2019-04-07 10:00:00 9.1 12 Sudoeste 27 Oeste 0 -- -- 85
2019-04-07 09:00:00 8.6 16 Oeste 26 Oeste 0 -- -- 83
2019-04-07 08:00:00 8 9 Oeste 17 Oeste 0 -- -- 87
2019-04-07 07:00:00 7.8 9 Oeste 17 Sudoeste 0 -- -- 87
2019-04-07 06:00:00 7.6 10 Sudoeste 25 Oeste 0 -- -- 86
2019-04-07 05:00:00 7.8 16 Oeste 26 Oeste 0 -- -- 86
2019-04-07 04:00:00 8 17 Oeste 30 Oeste 0 -- -- 86
2019-04-07 03:00:00 8 19 Oeste 33 Oeste 0 -- -- 87
2019-04-07 02:00:00 8.3 19 Oeste 32 Oeste 0 -- -- 83
2019-04-07 01:00:00 7.9 18 Oeste 30 Oeste 0 -- -- 84
2019-04-07 00:00:00 8 16 Oeste 25 Oeste 0 -- -- 84
2019-04-06 23:00:00 7.7 8 Oeste 28 Noroeste 0.8 -- -- 92
2019-04-06 22:00:00 8.6 15 Noroeste 24 Noroeste 0.4 -- -- 85
2019-04-06 21:00:00 9.7 17 Oeste 40 Oeste 0 -- -- 73
2019-04-06 20:00:00 10.8 20 Oeste 35 Oeste 0 -- -- 68
2019-04-06 19:00:00 8.2 15 Noroeste 46 Noroeste 0.2 -- -- 85
2019-04-06 18:00:00 10.5 21 Oeste 47 Oeste 0 -- -- 71
2019-04-06 17:00:00 9.5 28 Oeste 45 Oeste 0 -- -- 79
2019-04-06 16:00:00 7.7 24 Noroeste 75 Noroeste 1.6 -- -- 85
2019-04-06 15:00:00 13.5 33 Oeste 50 Oeste 0 -- -- 51
2019-04-06 14:00:00 12.4 31 Oeste 45 Oeste 0 -- -- 66
2019-04-06 13:00:00 11.3 25 Oeste 51 Oeste 0 -- -- 72
2019-04-06 12:00:00 9.9 31 Oeste 45 Oeste 0 -- -- 76
2019-04-06 11:00:00 8.4 18 Oeste 29 Sudoeste 0.2 -- -- 85
2019-04-06 10:00:00 7.7 18 Sudoeste 29 Sudoeste 0.2 -- -- 87
2019-04-06 09:00:00 6.8 13 Sudoeste 23 Oeste 0 -- -- 86
2019-04-06 08:00:00 6.5 8 Oeste 19 Oeste 0 -- -- 88
2019-04-06 07:00:00 6.9 14 Sudoeste 23 Sudoeste 0 -- -- 87
2019-04-06 06:00:00 6.9 8 Sudoeste 17 Sudoeste 0 -- -- 88
2019-04-06 05:00:00 6.8 10 Oeste 23 Sudoeste 0 -- -- 88
2019-04-06 04:00:00 6.6 10 Sudoeste 21 Oeste 0 -- -- 88
2019-04-06 03:00:00 6.5 13 Oeste 24 Oeste 0 -- -- 87
2019-04-06 02:00:00 6.6 16 Oeste 27 Oeste 0 -- -- 87
2019-04-06 01:00:00 6.5 15 Oeste 26 Oeste 0 -- -- 86
2019-04-06 00:00:00 6 12 Sudoeste 25 Oeste 0 -- -- 88
2019-04-05 23:00:00 6 14 Oeste 40 Oeste 1 -- -- 91
2019-04-05 22:00:00 7.1 22 Oeste 35 Oeste 0 -- -- 85
2019-04-05 21:00:00 7.2 19 Oeste 33 Oeste 0 -- -- 85
2019-04-05 20:00:00 7 14 Oeste 45 Oeste 1.2 -- -- 89
2019-04-05 19:00:00 8.3 25 Noroeste 43 Oeste 0 -- -- 80
2019-04-05 18:00:00 10.5 30 Oeste 53 Sudoeste 0 -- -- 63
2019-04-05 17:00:00 11.9 24 Oeste 46 Oeste 0 -- -- 53
2019-04-05 16:00:00 11.2 28 Oeste 45 Oeste 0 -- -- 52
2019-04-05 15:00:00 10.6 23 Oeste 41 Oeste 0 -- -- 61
2019-04-05 14:00:00 9.1 27 Oeste 44 Oeste 0.2 -- -- 69
2019-04-05 13:00:00 7.4 18 Oeste 28 Noroeste 0 -- -- 81
2019-04-05 12:00:00 6 19 Noroeste 30 Noroeste 0 -- -- 87
2019-04-05 11:00:00 5.2 22 Noroeste 57 Oeste 1 -- -- 91
2019-04-05 10:00:00 7.6 20 Sudoeste 33 Sudoeste 0.4 -- -- 86
2019-04-05 09:00:00 7.7 15 Sudoeste 21 Sudoeste 0 -- -- 86
2019-04-05 08:00:00 7.7 14 Sudoeste 21 Sudoeste 0 -- -- 87
2019-04-05 07:00:00 7.7 12 Sudoeste 26 Sudoeste 0.2 -- -- 89
2019-04-05 06:00:00 7.6 15 Sur 26 Sudoeste 0.4 -- -- 89
2019-04-05 05:00:00 7.9 12 Oeste 34 Sudoeste 0.6 -- -- 92
2019-04-05 04:00:00 7.6 23 Sudoeste 36 Sudoeste 0.4 -- -- 90
2019-04-05 03:00:00 7.9 21 Sudoeste 34 Sudoeste 0 -- -- 77
2019-04-05 02:00:00 8 16 Sudoeste 25 Sudoeste 0 -- -- 74
2019-04-05 01:00:00 9.2 17 Sudoeste 27 Oeste 0 -- -- 69
2019-04-05 00:00:00 10 21 Oeste 33 Oeste 0 -- -- 63
2019-04-04 23:00:00 10.9 21 Oeste 31 Oeste 0 -- -- 58
2019-04-04 22:00:00 12.2 17 Oeste 30 Oeste 0 -- -- 48
2019-04-04 21:00:00 12.5 15 Oeste 27 Oeste 0 -- -- 43
2019-04-04 20:00:00 14.4 21 Oeste 37 Oeste 0 -- -- 34
2019-04-04 19:00:00 15.2 22 Noroeste 36 Oeste 0 -- -- 33
2019-04-04 18:00:00 15.4 20 Oeste 40 Oeste 0 -- -- 31
2019-04-04 17:00:00 15.2 17 Noroeste 31 Oeste 0 -- -- 31
2019-04-04 16:00:00 14.5 17 Oeste 29 Oeste 0 -- -- 29
2019-04-04 15:00:00 13.3 9 Noroeste 26 Oeste 0 -- -- 37
2019-04-04 14:00:00 12.5 8 Oeste 22 Oeste 0 -- -- 44
2019-04-04 13:00:00 11 12 Noroeste 19 Noroeste 0 -- -- 50
2019-04-04 12:00:00 9.2 13 Norte 22 Noroeste 0 -- -- 54
2019-04-04 11:00:00 7.6 12 Noroeste 24 Noroeste 0 -- -- 60
2019-04-04 10:00:00 6.1 13 Noroeste 20 Oeste 0 -- -- 64
2019-04-04 09:00:00 4.5 13 Oeste 19 Oeste 0 -- -- 68
2019-04-04 08:00:00 3.5 14 Oeste 17 Oeste 0 -- -- 75
2019-04-04 07:00:00 3.5 11 Oeste 17 Oeste 0 -- -- 79
2019-04-04 06:00:00 4.2 10 Oeste 17 Noroeste 0 -- -- 78
2019-04-04 05:00:00 5.7 14 Noroeste 21 Noroeste 0 -- -- 72
2019-04-04 04:00:00 6.1 12 Noroeste 20 Oeste 0 -- -- 73
2019-04-04 03:00:00 6.6 15 Noroeste 20 Noroeste 0 -- -- 74
2019-04-04 02:00:00 7.3 15 Noroeste 21 Noroeste 0 -- -- 72
2019-04-04 01:00:00 8.1 15 Noroeste 23 Noroeste 0 -- -- 69
2019-04-04 00:00:00 9.3 16 Noroeste 26 Oeste 0 -- -- 66
2019-04-03 23:00:00 10.8 17 Noroeste 35 Oeste 0 -- -- 60
2019-04-03 22:00:00 12.3 21 Oeste 34 Oeste 0 -- -- 55
2019-04-03 21:00:00 13.8 13 Noroeste 28 Noroeste 0 -- -- 52
2019-04-03 20:00:00 15.2 20 Noroeste 32 Noroeste 0 -- -- 49
2019-04-03 19:00:00 15.9 20 Noroeste 32 Noroeste 0 -- -- 48
2019-04-03 18:00:00 16.5 18 Noroeste 37 Oeste 0 -- -- 49
2019-04-03 17:00:00 15.8 22 Oeste 36 Oeste 0 -- -- 53
2019-04-03 16:00:00 15.7 18 Noroeste 38 Oeste 0 -- -- 54
2019-04-03 15:00:00 15 27 Noroeste 39 Noroeste 0 -- -- 59
2019-04-03 14:00:00 14 19 Oeste 30 Noroeste 0 -- -- 62
2019-04-03 13:00:00 12.7 19 Oeste 29 Oeste 0 -- -- 70
2019-04-03 12:00:00 11.4 14 Oeste 25 Oeste 0 -- -- 75
2019-04-03 11:00:00 10.1 17 Noroeste 26 Noroeste 0 -- -- 82
2019-04-03 10:00:00 9.1 17 Noroeste 23 Noroeste 0 -- -- 82
2019-04-03 09:00:00 6.1 0 Calma 2 Sudoeste 0 -- -- 95
2019-04-03 08:00:00 5.1 2 Norte 4 Sur 0 -- -- 89
2019-04-03 07:00:00 6.1 3 Sur 4 Sur 0 -- -- 90
2019-04-03 06:00:00 7.8 4 Sudoeste 5 Sudoeste 0 -- -- 82
2019-04-03 05:00:00 8.8 3 Sudoeste 12 Oeste 0 -- -- 82
2019-04-03 04:00:00 9.9 10 Oeste 17 Oeste 0 -- -- 84
2019-04-03 03:00:00 10.5 10 Oeste 16 Oeste 0 -- -- 87
2019-04-03 02:00:00 11.2 9 Oeste 18 Oeste 0 -- -- 83
2019-04-03 01:00:00 11.7 10 Oeste 15 Oeste 0 -- -- 79
2019-04-03 00:00:00 12.5 11 Oeste 16 Oeste 0 -- -- 76
2019-04-02 23:00:00 13 9 Oeste 11 Oeste 0 -- -- 76
2019-04-02 22:00:00 14.2 6 Sudoeste 13 Oeste 0 -- -- 73
2019-04-02 21:00:00 16 9 Oeste 22 Noroeste 0 -- -- 62
2019-04-02 20:00:00 18.3 14 Oeste 21 Oeste 0 -- -- 50
2019-04-02 19:00:00 19.2 8 Oeste 19 Oeste 0 -- -- 48
2019-04-02 18:00:00 18.8 10 Noroeste 20 Oeste 0 -- -- 50
2019-04-02 17:00:00 18.1 8 Noroeste 18 Oeste 0 -- -- 55
2019-04-02 16:00:00 18.1 5 Oeste 15 Noroeste 0 -- -- 60
2019-04-02 15:00:00 16.6 5 Norte 12 Norte 0 -- -- 61
2019-04-02 14:00:00 16.2 6 Noroeste 15 Norte 0 -- -- 67
2019-04-02 13:00:00 15.3 4 Noroeste 12 Noroeste 0 -- -- 75
2019-04-02 12:00:00 14.1 5 Noroeste 14 Noroeste 0 -- -- 78
2019-04-02 11:00:00 13.2 5 Noroeste 10 Norte 0 -- -- 78
2019-04-02 10:00:00 11 3 Sur 6 Sur 0 -- -- 91
2019-04-02 09:00:00 7.5 4 Sur 7 Sudeste 0 -- -- 98
2019-04-02 08:00:00 6.4 6 Sudeste 6 Sudeste 0 -- -- 97
2019-04-02 07:00:00 6.5 5 Sur 6 Sur 0 -- -- 96
2019-04-02 06:00:00 7.2 3 Sur 8 Sudoeste 0 -- -- 96
2019-04-02 05:00:00 7.1 4 Sur 6 Sur 0 -- -- 96
2019-04-02 04:00:00 8.1 0 Calma 4 Sur 0 -- -- 95
2019-04-02 03:00:00 8.6 3 Sur 6 Sur 0 -- -- 94
2019-04-02 02:00:00 9.3 5 Sudoeste 8 Sur 0 -- -- 93
2019-04-02 01:00:00 10 6 Sur 10 Sur 0 -- -- 92
2019-04-02 00:00:00 10.4 7 Sur 13 Sur 0 -- -- 90
2019-04-01 23:00:00 11.1 7 Sur 15 Sur 0 -- -- 86
2019-04-01 22:00:00 11.8 4 Sur 8 Sudoeste 0.2 -- -- 90
2019-04-01 21:00:00 11.8 4 Sudoeste 20 Sudoeste 0.8 -- -- 90
2019-04-01 20:00:00 11.9 5 Oeste 28 Noroeste 0 -- -- 86
2019-04-01 19:00:00 12.9 17 Noroeste 26 Noroeste 0.6 -- -- 85
2019-04-01 18:00:00 14.6 10 Nordeste 29 Norte 0.8 -- -- 76
2019-04-01 17:00:00 16.4 21 Norte 33 Norte 0 -- -- 69
2019-04-01 16:00:00 17.9 12 Sudeste 23 Este 0 -- -- 63
2019-04-01 15:00:00 17.6 11 Sudeste 20 Este 0 -- -- 60
2019-04-01 14:00:00 16.9 5 Sur 12 Sur 0 -- -- 59
2019-04-01 13:00:00 15.9 8 Sur 16 Sur 0 -- -- 66
2019-04-01 12:00:00 14.7 8 Sur 13 Sur 0 -- -- 74
2019-04-01 11:00:00 13.4 6 Sudeste 10 Sur 0 -- -- 83
2019-04-01 10:00:00 12.5 5 Sudeste 8 Sudeste 0 -- -- 89
2019-04-01 09:00:00 10.1 4 Sudeste 6 Sudeste 0 -- -- 97
2019-04-01 08:00:00 10.5 4 Sudeste 8 Sudeste 0 -- -- 93
2019-04-01 07:00:00 11 5 Sudeste 15 Sur 0 -- -- 92
2019-04-01 06:00:00 11.2 6 Sudeste 9 Sudeste 0 -- -- 93
2019-04-01 05:00:00 11.4 4 Este 5 Este 0 -- -- 93
2019-04-01 04:00:00 11.5 5 Sudeste 9 Sudeste 0.2 -- -- 91
2019-04-01 03:00:00 11.6 2 Sur 13 Sudeste 0 -- -- 91
2019-04-01 02:00:00 11.7 11 Sudeste 15 Sudeste 0 -- -- 90
2019-04-01 01:00:00 11.8 6 Este 16 Este 0 -- -- 91
2019-04-01 00:00:00 12 6 Sur 12 Sudeste 0 -- -- 90
2019-03-31 23:00:00 12.1 3 Sudeste 17 Sudoeste 0 -- -- 89
2019-03-31 22:00:00 12.3 13 Sur 21 Sudoeste 0 -- -- 82
2019-03-31 21:00:00 12 8 Sur 11 Este 0.6 -- -- 90
2019-03-31 20:00:00 12.2 3 Este 22 Sudeste 1.2 -- -- 87
2019-03-31 19:00:00 12.3 16 Sudeste 32 Sudeste 10.2 -- -- 84
2019-03-31 18:00:00 13.4 33 Sudeste 49 Sudeste 0.2 -- -- 77
2019-03-31 17:00:00 19.2 12 Norte 19 Noroeste 0 -- -- 53
2019-03-31 16:00:00 18.5 8 Norte 18 Oeste 0 -- -- 62
2019-03-31 15:00:00 18 9 Noroeste 19 Sur 0 -- -- 66
2019-03-31 14:00:00 16.8 5 Oeste 12 Oeste 0 -- -- 61
2019-03-31 13:00:00 16 4 Nordeste 12 Nordeste 0 -- -- 70
2019-03-31 12:00:00 15.5 5 Este 10 Este 0 -- -- 68
2019-03-31 11:00:00 14.4 4 Nordeste 9 Nordeste 0 -- -- 69
2019-03-31 10:00:00 10.6 0 Calma 5 Sudeste 0 -- -- 92
2019-03-31 09:00:00 7.9 4 Sudoeste 5 Sudoeste 0 -- -- 95
2019-03-31 08:00:00 8.1 2 Sudeste 5 Sudeste 0 -- -- 95
2019-03-31 07:00:00 8.6 0 Calma 4 Sudeste 0 -- -- 93
2019-03-31 06:00:00 9.4 2 Sur 5 Sur 0 -- -- 91
2019-03-31 05:00:00 10.1 4 Sur 14 Sur 0 -- -- 86
2019-03-31 03:00:00 11.5 11 Este 17 Nordeste 0 -- -- 82
2019-03-31 01:00:00 11.4 5 Sur 7 Sudoeste 0 -- -- 87
2019-03-31 00:00:00 11.9 0 Calma 10 Noroeste 0 -- -- 85
2019-03-30 23:00:00 11.9 6 Noroeste 26 Oeste 0 -- -- 86
2019-03-30 22:00:00 12.8 17 Noroeste 30 Oeste 0 -- -- 80
2019-03-30 21:00:00 13.2 14 Noroeste 46 Sudoeste 8.8 -- -- 73
2019-03-30 20:00:00 14.5 31 Sudoeste 50 Sur 4.8 -- -- 66
2019-03-30 19:00:00 20.5 15 Nordeste 21 Norte 0 -- -- 37
2019-03-30 18:00:00 21.3 11 Norte 19 Este 0 -- -- 36
2019-03-30 17:00:00 21.5 5 Sudeste 28 Este 0 -- -- 34
2019-03-30 16:00:00 21.8 17 Este 28 Sudeste 0 -- -- 34
2019-03-30 15:00:00 21.5 14 Sudeste 32 Este 0 -- -- 35
2019-03-30 14:00:00 20.3 13 Sudeste 31 Este 0 -- -- 38
2019-03-30 13:00:00 19.9 18 Este 37 Sudoeste 0 -- -- 40
2019-03-30 12:00:00 17.9 18 Este 32 Este 0 -- -- 45
2019-03-30 11:00:00 16.2 22 Este 34 Este 0 -- -- 52
2019-03-30 10:00:00 14.3 20 Sudeste 31 Sudeste 0 -- -- 59
2019-03-30 09:00:00 12.2 21 Sudeste 28 Sudeste 0 -- -- 69
2019-03-30 08:00:00 10.6 20 Sudeste 28 Sudeste 0 -- -- 73
2019-03-30 07:00:00 10.6 14 Sudeste 21 Sudeste 0 -- -- 75
2019-03-30 06:00:00 11 8 Sudeste 26 Sudeste 0 -- -- 72
2019-03-30 05:00:00 11.4 18 Sudeste 28 Sudeste 0 -- -- 68
2019-03-30 04:00:00 11.5 14 Sudeste 23 Sudeste 0 -- -- 60
2019-03-30 03:00:00 12 5 Sudeste 10 Sudeste 0 -- -- 56
2019-03-30 02:00:00 12.6 8 Sudeste 14 Sur 0 -- -- 52
2019-03-30 01:00:00 12.7 11 Sur 18 Sur 0 -- -- 51
2019-03-30 00:00:00 12.7 12 Sudeste 17 Sudeste 0 -- -- 48
2019-03-29 23:00:00 12.6 10 Sudeste 19 Sudeste 0 -- -- 46
2019-03-29 22:00:00 13.9 9 Sur 16 Sur 0 -- -- 40
2019-03-29 21:00:00 14.6 9 Sudeste 12 Sudeste 0 -- -- 35
2019-03-29 20:00:00 17.7 8 Sudeste 15 Sudeste 0 -- -- 28
2019-03-29 19:00:00 20.2 6 Sudeste 20 Sudeste 0 -- -- 27
2019-03-29 18:00:00 21 8 Sudeste 19 Sudeste 0 -- -- 25
2019-03-29 17:00:00 20.9 9 Sudeste 38 Sur 0 -- -- 24
2019-03-29 16:00:00 20.4 10 Este 27 Este 0 -- -- 25
2019-03-29 15:00:00 20.3 14 Este 29 Este 0 -- -- 26
2019-03-29 14:00:00 19.2 13 Este 27 Sudeste 0 -- -- 28
2019-03-29 13:00:00 18.6 16 Sudeste 30 Sudeste 0 -- -- 29
2019-03-29 12:00:00 17 19 Este 33 Sudeste 0 -- -- 32
2019-03-29 11:00:00 15.5 16 Sudeste 30 Sudeste 0 -- -- 35
2019-03-29 10:00:00 13.4 16 Este 23 Este 0 -- -- 43
2019-03-29 09:00:00 9.6 14 Sudeste 22 Sudeste 0 -- -- 58
2019-03-29 08:00:00 7.3 15 Sudeste 22 Este 0 -- -- 63
2019-03-29 07:00:00 6.3 14 Sudeste 20 Sudeste 0 -- -- 67
2019-03-29 06:00:00 6.4 8 Este 15 Sudeste 0 -- -- 62
2019-03-29 05:00:00 6.8 12 Sudeste 22 Sudeste 0 -- -- 63
2019-03-29 04:00:00 6.5 11 Sur 19 Sudeste 0 -- -- 57
2019-03-29 03:00:00 7.3 14 Sudeste 20 Este 0 -- -- 50
2019-03-29 02:00:00 6.7 8 Sudeste 12 Sudeste 0 -- -- 43
2019-03-29 01:00:00 8.7 11 Sudeste 16 Sudeste 0 -- -- 39
2019-03-29 00:00:00 8.9 6 Sudeste 11 Sur 0 -- -- 38
2019-03-28 23:00:00 8.4 4 Sudeste 8 Sur 0 -- -- 36
2019-03-28 22:00:00 9.9 2 Sudeste 7 Sur 0 -- -- 31
2019-03-28 21:00:00 12.7 7 Sur 10 Sur 0 -- -- 26
2019-03-28 20:00:00 16.2 7 Sudeste 27 Sudeste 0 -- -- 20
2019-03-28 19:00:00 19.4 15 Sudeste 29 Este 0 -- -- 16
2019-03-28 18:00:00 20.3 22 Este 48 Este 0 -- -- 15
2019-03-28 17:00:00 20.7 21 Este 35 Este 0 -- -- 14
2019-03-28 16:00:00 20.8 26 Este 49 Este 0 -- -- 14
2019-03-28 15:00:00 20.5 19 Este 40 Este 0 -- -- 15
2019-03-28 14:00:00 19.5 20 Este 37 Este 0 -- -- 21
2019-03-28 13:00:00 18.6 22 Este 37 Este 0 -- -- 25
2019-03-28 12:00:00 17.6 20 Este 33 Este 0 -- -- 30
2019-03-28 11:00:00 15.9 20 Este 31 Este 0 -- -- 41
2019-03-28 10:00:00 13.1 17 Este 28 Este 0 -- -- 59
2019-03-28 09:00:00 9.1 14 Sudeste 19 Sudeste 0 -- -- 67
2019-03-28 08:00:00 4.1 3 Sudeste 9 Sudeste 0 -- -- 67
2019-03-28 07:00:00 2.5 4 Sudeste 6 Sudeste 0 -- -- 67
2019-03-28 06:00:00 4.3 6 Este 9 Sudeste 0 -- -- 65
2019-03-28 05:00:00 4 8 Sudeste 10 Sudeste 0 -- -- 59
2019-03-28 04:00:00 6.1 4 Sudeste 14 Sudeste 0 -- -- 53
2019-03-28 03:00:00 6.6 0 Calma 23 Este 0 -- -- 54
2019-03-28 02:00:00 7.9 12 Sudeste 17 Sudeste 0 -- -- 37
2019-03-28 01:00:00 9.7 13 Sudeste 18 Sudeste 0 -- -- 31
2019-03-28 00:00:00 9.3 8 Sudeste 15 Sudeste 0 -- -- 30
2019-03-27 23:00:00 10.3 12 Sudeste 15 Sudeste 0 -- -- 28
2019-03-27 22:00:00 12.3 12 Este 15 Sudeste 0 -- -- 25
2019-03-27 21:00:00 14 8 Este 12 Nordeste 0 -- -- 25
2019-03-27 20:00:00 16.9 8 Nordeste 32 Nordeste 0 -- -- 23
2019-03-27 19:00:00 19.3 19 Nordeste 37 Este 0 -- -- 20
2019-03-27 18:00:00 20.3 18 Nordeste 39 Nordeste 0 -- -- 19
2019-03-27 17:00:00 20.7 23 Nordeste 40 Nordeste 0 -- -- 18
2019-03-27 16:00:00 21 23 Este 47 Este 0 -- -- 19
2019-03-27 15:00:00 20.6 23 Nordeste 44 Nordeste 0 -- -- 20
2019-03-27 14:00:00 19.2 21 Nordeste 42 Este 0 -- -- 25
2019-03-27 13:00:00 17.9 21 Nordeste 33 Este 0 -- -- 30
2019-03-27 12:00:00 16.6 17 Nordeste 32 Este 0 -- -- 34
2019-03-27 11:00:00 15.1 19 Este 32 Este 0 -- -- 39
2019-03-27 10:00:00 12.9 16 Este 24 Este 0 -- -- 47
2019-03-27 09:00:00 10.4 5 Este 9 Este 0 -- -- 60
2019-03-27 08:00:00 6.1 6 Sudeste 9 Sudeste 0 -- -- 73
2019-03-27 07:00:00 6.1 8 Sudeste 15 Este 0 -- -- 71
2019-03-27 06:00:00 7.9 8 Sudeste 15 Sudeste 0 -- -- 68
2019-03-27 05:00:00 8.1 10 Sudeste 14 Este 0 -- -- 66
2019-03-27 04:00:00 8.7 6 Sudeste 12 Sudeste 0 -- -- 65
2019-03-27 03:00:00 10.9 9 Sudeste 17 Sudeste 0 -- -- 59
2019-03-27 02:00:00 12.1 10 Sudeste 22 Sudeste 0 -- -- 54
2019-03-27 01:00:00 13.8 17 Sudeste 29 Sudeste 0 -- -- 48
2019-03-27 00:00:00 15.9 24 Sudeste 32 Sudeste 0 -- -- 40
2019-03-26 23:00:00 16.3 9 Este 21 Este 0 -- -- 36
2019-03-26 22:00:00 18.2 14 Este 28 Este 0 -- -- 32
2019-03-26 21:00:00 19.3 16 Este 28 Nordeste 0 -- -- 28
2019-03-26 20:00:00 21 15 Nordeste 24 Nordeste 0 -- -- 25
2019-03-26 19:00:00 23.7 17 Este 25 Este 0 -- -- 21
2019-03-26 18:00:00 24.4 20 Este 32 Este 0 -- -- 22
2019-03-26 17:00:00 24.8 18 Este 30 Este 0 -- -- 22
2019-03-26 16:00:00 23.6 20 Este 35 Este 0 -- -- 22
2019-03-26 15:00:00 23.5 20 Este 41 Nordeste 0 -- -- 21
2019-03-26 14:00:00 21.8 21 Nordeste 33 Este 0 -- -- 26
2019-03-26 13:00:00 20 17 Nordeste 30 Nordeste 0 -- -- 29
2019-03-26 12:00:00 19.4 16 Este 33 Este 0 -- -- 28
2019-03-26 11:00:00 17.8 17 Nordeste 27 Nordeste 0 -- -- 30
2019-03-26 10:00:00 16 12 Este 19 Este 0 -- -- 33
2019-03-26 09:00:00 11.7 6 Este 11 Este 0 -- -- 41
2019-03-26 08:00:00 3.8 6 Sur 9 Sur 0 -- -- 50
2019-03-26 07:00:00 4.2 0 Calma 7 Sur 0 -- -- 47
2019-03-26 06:00:00 4.9 2 Sudeste 8 Sur 0 -- -- 45
2019-03-26 05:00:00 5.9 0 Calma 12 Sudeste 0 -- -- 40
2019-03-26 04:00:00 7.7 9 Sudeste 12 Sudeste 0 -- -- 40
2019-03-26 03:00:00 5.9 5 Sudeste 9 Sudeste 0 -- -- 40
2019-03-26 02:00:00 6.7 5 Sudeste 10 Sudeste 0 -- -- 36
2019-03-26 01:00:00 6.6 4 Sudeste 8 Sur 0 -- -- 34
2019-03-26 00:00:00 8.8 3 Sudeste 9 Sudeste 0 -- -- 29
2019-03-25 23:00:00 10.4 8 Este 9 Sudeste 0 -- -- 29
2019-03-25 22:00:00 12.8 5 Este 9 Nordeste 0 -- -- 26
2019-03-25 21:00:00 15.5 6 Este 15 Este 0 -- -- 23
2019-03-25 20:00:00 19.3 10 Nordeste 28 Nordeste 0 -- -- 21
2019-03-25 19:00:00 21.8 19 Nordeste 35 Nordeste 0 -- -- 19
2019-03-25 18:00:00 22.8 23 Nordeste 40 Este 0 -- -- 20
2019-03-25 17:00:00 23.1 23 Nordeste 40 Nordeste 0 -- -- 20
2019-03-25 16:00:00 23.3 21 Este 43 Este 0 -- -- 21
2019-03-25 15:00:00 23.1 21 Este 44 Este 0 -- -- 21
2019-03-25 14:00:00 22 23 Este 43 Nordeste 0 -- -- 28
2019-03-25 13:00:00 20.8 21 Nordeste 37 Este 0 -- -- 31
2019-03-25 12:00:00 20.1 22 Este 39 Este 0 -- -- 32
2019-03-25 11:00:00 18.2 18 Este 27 Este 0 -- -- 37
2019-03-25 10:00:00 15.4 14 Este 22 Nordeste 0 -- -- 49
2019-03-25 09:00:00 11.7 5 Nordeste 12 Nordeste 0 -- -- 65
2019-03-25 08:00:00 4.6 0 Calma 10 Sur 0 -- -- 76
2019-03-25 07:00:00 3.9 3 Sudeste -- -- 0 -- -- 75
2019-03-25 06:00:00 4.5 4 Sur 6 Sur 0 -- -- 74
2019-03-25 05:00:00 5.1 4 Sur 8 Sur 0 -- -- 70
2019-03-25 04:00:00 6.1 2 Sur 6 Sudeste 0 -- -- 70
2019-03-25 03:00:00 7.5 5 Sudeste 13 Sudeste 0 -- -- 66
2019-03-25 02:00:00 10 5 Sur 10 Sur 0 -- -- 63
2019-03-25 01:00:00 11.3 5 Sur 14 Sur 0 -- -- 60
2019-03-25 00:00:00 11.7 11 Sur 15 Sur 0 -- -- 58
2019-03-24 23:00:00 11.8 8 Sudeste 12 Sudeste 0 -- -- 54
2019-03-24 22:00:00 12.7 10 Sudeste 12 Sudeste 0 -- -- 52
2019-03-24 21:00:00 14 6 Sudeste 10 Sudeste 0 -- -- 44
2019-03-24 20:00:00 17.2 9 Sudeste 22 Este 0 -- -- 39
2019-03-24 19:00:00 19.5 15 Este 30 Este 0 -- -- 36
2019-03-24 18:00:00 20.5 18 Este 30 Este 0 -- -- 34
2019-03-24 17:00:00 21.4 17 Este 33 Este 0 -- -- 34
2019-03-24 16:00:00 21.7 21 Sudeste 33 Sudeste 0 -- -- 32
2019-03-24 15:00:00 21.1 22 Este 37 Este 0 -- -- 35
2019-03-24 14:00:00 20.1 17 Este 41 Este 0 -- -- 37
2019-03-24 13:00:00 19 18 Sudeste 33 Este 0 -- -- 37
2019-03-24 12:00:00 17.1 15 Este 33 Este 0 -- -- 43
2019-03-24 11:00:00 14.7 15 Este 23 Nordeste 0 -- -- 52
2019-03-24 10:00:00 12 9 Nordeste 14 Nordeste 0 -- -- 62
2019-03-24 09:00:00 9.2 3 Nordeste 6 Nordeste 0 -- -- 73
2019-03-24 08:00:00 2.7 2 Sudeste 6 Sudeste 0 -- -- 76
2019-03-24 07:00:00 2.4 4 Sur 6 Sur 0 -- -- 76
2019-03-24 06:00:00 3.3 3 Sudeste 5 Este 0 -- -- 71
2019-03-24 05:00:00 5.2 0 Calma 6 Sur 0 -- -- 70
2019-03-24 04:00:00 7.3 5 Este 10 Nordeste 0 -- -- 66
2019-03-24 03:00:00 9.3 8 Este 16 Este 0 -- -- 62
2019-03-24 02:00:00 11.1 7 Sudeste 27 Sudeste 0 -- -- 57
2019-03-24 01:00:00 9.5 7 Sudeste 12 Sudeste 0 -- -- 56
2019-03-24 00:00:00 13 11 Sudeste 23 Este 0 -- -- 50
2019-03-23 23:00:00 14.2 11 Sudeste 25 Este 0 -- -- 48
2019-03-23 22:00:00 16 14 Este 30 Este 0 -- -- 43
2019-03-23 21:00:00 17.9 19 Este 32 Este 0 -- -- 38
2019-03-23 20:00:00 18.5 11 Este 27 Este 0 -- -- 34
2019-03-23 19:00:00 19.7 19 Este 33 Este 0 -- -- 32
2019-03-23 18:00:00 20.3 22 Este 38 Este 0 -- -- 31
2019-03-23 17:00:00 20.8 22 Este 41 Este 0 -- -- 30
2019-03-23 16:00:00 21.5 25 Este 42 Nordeste 0 -- -- 29
2019-03-23 15:00:00 20.9 24 Este 51 Este 0 -- -- 29
2019-03-23 14:00:00 20.5 34 Este 50 Este 0 -- -- 29
2019-03-23 13:00:00 20.2 31 Este 54 Este 0 -- -- 31
2019-03-23 12:00:00 19.7 31 Este 52 Este 0 -- -- 32
2019-03-23 11:00:00 16.8 17 Este 27 Este 0 -- -- 41
2019-03-23 10:00:00 13.7 11 Este 20 Este 0 -- -- 50
2019-03-23 09:00:00 10.6 10 Este 17 Este 0 -- -- 56
2019-03-23 08:00:00 6.4 6 Sudeste 12 Sudeste 0 -- -- 66
2019-03-23 07:00:00 7 10 Sudeste 22 Sudeste 0 -- -- 67
2019-03-23 06:00:00 6.7 13 Sudeste 20 Sudeste 0 -- -- 65
2019-03-23 05:00:00 7 15 Sudeste 18 Sudeste 0 -- -- 58
2019-03-23 04:00:00 7.9 13 Sudeste 18 Sudeste 0 -- -- 54
2019-03-23 03:00:00 7.6 14 Sudeste 19 Sudeste 0 -- -- 54
2019-03-23 02:00:00 5.2 4 Sur 8 Este 0 -- -- 51
2019-03-23 01:00:00 6 7 Este 9 Este 0 -- -- 48
2019-03-23 00:00:00 5.7 2 Norte 6 Este 0 -- -- 46
2019-03-22 23:00:00 6.5 3 Sudeste 5 Sudeste 0 -- -- 40
2019-03-22 22:00:00 9.4 3 Sudeste 8 Este 0 -- -- 35
2019-03-22 21:00:00 13.3 6 Este 14 Este 0 -- -- 35
2019-03-22 20:00:00 15.7 10 Este 35 Este 0 -- -- 32
2019-03-22 19:00:00 18.2 15 Este 29 Nordeste 0 -- -- 29
2019-03-22 18:00:00 18.8 15 Nordeste 33 Este 0 -- -- 28
2019-03-22 17:00:00 19 15 Nordeste 39 Este 0 -- -- 26
2019-03-22 16:00:00 18.7 17 Este 35 Este 0 -- -- 26
2019-03-22 15:00:00 18.6 21 Este 39 Este 0 -- -- 25
2019-03-22 14:00:00 18.2 26 Nordeste 49 Este 0 -- -- 23
2019-03-22 13:00:00 17.2 23 Este 41 Nordeste 0 -- -- 25
2019-03-22 12:00:00 15.6 17 Este 31 Este 0 -- -- 33
2019-03-22 11:00:00 13.7 15 Este 25 Nordeste 0 -- -- 41
2019-03-22 10:00:00 11.4 8 Este 17 Sudeste 0 -- -- 60
2019-03-22 09:00:00 7.9 13 Sudeste 17 Sudeste 0 -- -- 67
2019-03-22 08:00:00 4.2 10 Sudeste 15 Sudeste 0 -- -- 69
2019-03-22 07:00:00 4.1 9 Sudeste 17 Este 0 -- -- 64
2019-03-22 06:00:00 3.2 8 Este 13 Este 0 -- -- 60
2019-03-22 05:00:00 2.8 4 Sur 8 Sur 0 -- -- 54
2019-03-22 04:00:00 4.2 3 Sudeste 11 Sudeste 0 -- -- 51
2019-03-22 03:00:00 6.5 8 Sudeste 14 Sudeste 0 -- -- 46
2019-03-22 02:00:00 6.3 7 Sudeste 13 Sudeste 0 -- -- 45
2019-03-22 01:00:00 6.7 9 Sudeste 13 Sur 0 -- -- 43
2019-03-22 00:00:00 7.6 11 Sudeste 14 Sudeste 0 -- -- 40
2019-03-21 23:00:00 7.8 9 Sudeste 11 Este 0 -- -- 39
2019-03-21 22:00:00 9.5 6 Este 9 Nordeste 0 -- -- 35
2019-03-21 21:00:00 11.2 8 Nordeste 10 Nordeste 0 -- -- 32
2019-03-21 20:00:00 13.9 6 Nordeste 24 Este 0 -- -- 29
2019-03-21 19:00:00 16.2 12 Nordeste 26 Este 0 -- -- 26
2019-03-21 18:00:00 17.3 14 Este 28 Este 0 -- -- 25
2019-03-21 17:00:00 17.7 16 Este 30 Nordeste 0 -- -- 24
2019-03-21 16:00:00 17.7 14 Este 36 Este 0 -- -- 25
2019-03-21 15:00:00 17.5 16 Este 35 Nordeste 0 -- -- 26
2019-03-21 14:00:00 16.5 19 Nordeste 40 Este 0 -- -- 29
2019-03-21 13:00:00 16.3 21 Este 36 Sudeste 0 -- -- 33
2019-03-21 12:00:00 15.6 18 Este 28 Este 0 -- -- 42
2019-03-21 11:00:00 13.8 14 Este 22 Este 0 -- -- 53
2019-03-21 10:00:00 11.2 12 Sudeste 22 Sudeste 0 -- -- 63
2019-03-21 09:00:00 8.6 10 Sudeste 17 Sudeste 0 -- -- 69
2019-03-21 08:00:00 4.7 12 Sudeste 16 Sudeste 0 -- -- 77
2019-03-21 07:00:00 2.2 4 Sudeste 10 Nordeste 0 -- -- 66
2019-03-21 06:00:00 3.1 5 Sudeste 8 Sudeste 0 -- -- 68
2019-03-21 05:00:00 4.7 6 Sur 13 Sudeste 0 -- -- 55
2019-03-21 04:00:00 5.2 7 Sudeste 10 Sudeste 0 -- -- 57
2019-03-21 03:00:00 6 9 Sur 12 Sudeste 0 -- -- 54
2019-03-21 02:00:00 4.7 4 Sudeste 8 Sudeste 0 -- -- 51
2019-03-21 01:00:00 4.4 3 Sudeste 5 Sur 0 -- -- 50
2019-03-21 00:00:00 4.7 3 Sudeste 5 Sudeste 0 -- -- 50